sensor_id;sensor_type;location;lat;lon;timestamp;P1;durP1;ratioP1;P2;durP2;ratioP2
23636;SDS011;11995;50.842;4.456;2022-12-13T00:01:30;59.75;;;24.43;;
23636;SDS011;11995;50.842;4.456;2022-12-13T00:04:03;56.48;;;24.37;;
23636;SDS011;11995;50.842;4.456;2022-12-13T00:06:32;58.25;;;23.22;;
23636;SDS011;11995;50.842;4.456;2022-12-13T00:09:02;51.23;;;23.30;;
23636;SDS011;11995;50.842;4.456;2022-12-13T00:11:31;50.78;;;22.22;;
23636;SDS011;11995;50.842;4.456;2022-12-13T00:13:59;41.83;;;17.90;;
23636;SDS011;11995;50.842;4.456;2022-12-13T00:16:26;50.87;;;23.43;;
23636;SDS011;11995;50.842;4.456;2022-12-13T00:18:58;59.77;;;31.23;;
23636;SDS011;11995;50.842;4.456;2022-12-13T00:21:27;50.17;;;22.52;;
23636;SDS011;11995;50.842;4.456;2022-12-13T00:23:56;55.90;;;24.23;;
23636;SDS011;11995;50.842;4.456;2022-12-13T00:26:26;59.13;;;24.02;;
23636;SDS011;11995;50.842;4.456;2022-12-13T00:28:57;55.08;;;23.57;;
23636;SDS011;11995;50.842;4.456;2022-12-13T00:31:26;55.48;;;23.80;;
23636;SDS011;11995;50.842;4.456;2022-12-13T00:33:56;55.65;;;23.42;;
23636;SDS011;11995;50.842;4.456;2022-12-13T00:38:51;49.48;;;21.52;;
23636;SDS011;11995;50.842;4.456;2022-12-13T00:41:29;50.40;;;23.00;;
23636;SDS011;11995;50.842;4.456;2022-12-13T00:43:58;57.23;;;24.15;;
23636;SDS011;11995;50.842;4.456;2022-12-13T00:46:27;55.20;;;22.77;;
23636;SDS011;11995;50.842;4.456;2022-12-13T00:48:56;55.45;;;24.07;;
23636;SDS011;11995;50.842;4.456;2022-12-13T00:51:27;54.40;;;24.95;;
23636;SDS011;11995;50.842;4.456;2022-12-13T00:53:57;51.95;;;23.15;;
23636;SDS011;11995;50.842;4.456;2022-12-13T00:56:26;46.37;;;22.30;;
23636;SDS011;11995;50.842;4.456;2022-12-13T00:58:55;52.30;;;22.67;;
23636;SDS011;11995;50.842;4.456;2022-12-13T01:01:24;55.73;;;23.07;;
23636;SDS011;11995;50.842;4.456;2022-12-13T01:03:54;55.15;;;23.05;;
23636;SDS011;11995;50.842;4.456;2022-12-13T01:08:58;53.42;;;23.12;;
23636;SDS011;11995;50.842;4.456;2022-12-13T01:11:26;49.23;;;22.13;;
23636;SDS011;11995;50.842;4.456;2022-12-13T01:13:54;56.27;;;23.07;;
23636;SDS011;11995;50.842;4.456;2022-12-13T01:16:21;54.03;;;22.75;;
23636;SDS011;11995;50.842;4.456;2022-12-13T01:18:49;59.67;;;24.67;;
23636;SDS011;11995;50.842;4.456;2022-12-13T01:21:17;50.03;;;22.73;;
23636;SDS011;11995;50.842;4.456;2022-12-13T01:23:48;51.98;;;22.05;;
23636;SDS011;11995;50.842;4.456;2022-12-13T01:26:17;54.07;;;22.73;;
23636;SDS011;11995;50.842;4.456;2022-12-13T01:28:46;48.15;;;21.17;;
23636;SDS011;11995;50.842;4.456;2022-12-13T01:31:15;39.58;;;18.57;;
23636;SDS011;11995;50.842;4.456;2022-12-13T01:33:45;51.60;;;23.52;;
23636;SDS011;11995;50.842;4.456;2022-12-13T01:36:14;49.90;;;23.50;;
23636;SDS011;11995;50.842;4.456;2022-12-13T01:38:44;47.65;;;22.40;;
23636;SDS011;11995;50.842;4.456;2022-12-13T01:41:18;53.45;;;22.70;;
23636;SDS011;11995;50.842;4.456;2022-12-13T01:46:18;40.12;;;21.30;;
23636;SDS011;11995;50.842;4.456;2022-12-13T01:48:47;50.23;;;22.22;;
23636;SDS011;11995;50.842;4.456;2022-12-13T01:51:20;44.20;;;22.35;;
23636;SDS011;11995;50.842;4.456;2022-12-13T01:53:50;49.55;;;22.45;;
23636;SDS011;11995;50.842;4.456;2022-12-13T01:56:26;50.83;;;21.82;;
23636;SDS011;11995;50.842;4.456;2022-12-13T01:58:55;45.40;;;20.52;;
23636;SDS011;11995;50.842;4.456;2022-12-13T02:01:24;42.83;;;20.88;;
23636;SDS011;11995;50.842;4.456;2022-12-13T02:03:52;50.95;;;22.20;;
23636;SDS011;11995;50.842;4.456;2022-12-13T02:06:27;49.05;;;21.07;;
23636;SDS011;11995;50.842;4.456;2022-12-13T02:09:06;48.98;;;21.73;;
23636;SDS011;11995;50.842;4.456;2022-12-13T02:11:34;51.37;;;22.85;;
23636;SDS011;11995;50.842;4.456;2022-12-13T02:14:04;48.50;;;21.48;;
23636;SDS011;11995;50.842;4.456;2022-12-13T02:16:45;44.75;;;21.23;;
23636;SDS011;11995;50.842;4.456;2022-12-13T02:19:45;44.83;;;21.05;;
23636;SDS011;11995;50.842;4.456;2022-12-13T02:22:27;44.67;;;21.97;;
23636;SDS011;11995;50.842;4.456;2022-12-13T02:24:56;47.70;;;20.90;;
23636;SDS011;11995;50.842;4.456;2022-12-13T02:27:32;44.38;;;21.75;;
23636;SDS011;11995;50.842;4.456;2022-12-13T02:32:53;46.77;;;21.33;;
23636;SDS011;11995;50.842;4.456;2022-12-13T02:35:28;44.50;;;21.15;;
23636;SDS011;11995;50.842;4.456;2022-12-13T02:44:07;49.05;;;20.92;;
23636;SDS011;11995;50.842;4.456;2022-12-13T02:46:31;50.48;;;23.85;;
23636;SDS011;11995;50.842;4.456;2022-12-13T02:49:00;50.00;;;21.27;;
23636;SDS011;11995;50.842;4.456;2022-12-13T02:51:30;54.40;;;23.05;;
23636;SDS011;11995;50.842;4.456;2022-12-13T02:53:58;48.30;;;22.45;;
23636;SDS011;11995;50.842;4.456;2022-12-13T02:56:26;50.70;;;23.45;;
23636;SDS011;11995;50.842;4.456;2022-12-13T02:58:53;44.40;;;18.10;;
23636;SDS011;11995;50.842;4.456;2022-12-13T03:01:33;44.45;;;23.52;;
23636;SDS011;11995;50.842;4.456;2022-12-13T03:12:33;42.70;;;22.58;;
23636;SDS011;11995;50.842;4.456;2022-12-13T03:18:16;51.60;;;23.05;;
23636;SDS011;11995;50.842;4.456;2022-12-13T03:20:46;52.58;;;23.25;;
23636;SDS011;11995;50.842;4.456;2022-12-13T03:23:18;44.67;;;21.80;;
23636;SDS011;11995;50.842;4.456;2022-12-13T03:28:15;45.73;;;20.62;;
23636;SDS011;11995;50.842;4.456;2022-12-13T03:30:43;47.43;;;21.10;;
23636;SDS011;11995;50.842;4.456;2022-12-13T03:33:10;42.00;;;20.30;;
23636;SDS011;11995;50.842;4.456;2022-12-13T03:35:38;45.80;;;20.95;;
23636;SDS011;11995;50.842;4.456;2022-12-13T03:38:08;42.95;;;19.52;;
23636;SDS011;11995;50.842;4.456;2022-12-13T03:40:36;43.28;;;20.90;;
23636;SDS011;11995;50.842;4.456;2022-12-13T03:43:03;36.33;;;18.37;;
23636;SDS011;11995;50.842;4.456;2022-12-13T03:45:31;40.90;;;21.07;;
23636;SDS011;11995;50.842;4.456;2022-12-13T03:47:58;41.80;;;20.15;;
23636;SDS011;11995;50.842;4.456;2022-12-13T03:50:26;36.73;;;18.37;;
23636;SDS011;11995;50.842;4.456;2022-12-13T03:52:57;47.33;;;19.73;;
23636;SDS011;11995;50.842;4.456;2022-12-13T03:55:26;39.60;;;19.73;;
23636;SDS011;11995;50.842;4.456;2022-12-13T03:57:54;27.50;;;11.93;;
23636;SDS011;11995;50.842;4.456;2022-12-13T04:00:22;27.77;;;15.55;;
23636;SDS011;11995;50.842;4.456;2022-12-13T04:02:49;38.58;;;19.12;;
23636;SDS011;11995;50.842;4.456;2022-12-13T04:05:17;39.90;;;17.80;;
23636;SDS011;11995;50.842;4.456;2022-12-13T04:07:44;39.67;;;19.65;;
23636;SDS011;11995;50.842;4.456;2022-12-13T04:10:12;31.63;;;15.73;;
23636;SDS011;11995;50.842;4.456;2022-12-13T04:12:40;34.73;;;19.55;;
23636;SDS011;11995;50.842;4.456;2022-12-13T04:15:26;38.90;;;20.48;;
23636;SDS011;11995;50.842;4.456;2022-12-13T04:17:54;47.03;;;21.62;;
23636;SDS011;11995;50.842;4.456;2022-12-13T04:20:21;48.48;;;22.58;;
23636;SDS011;11995;50.842;4.456;2022-12-13T04:22:49;50.20;;;24.85;;
23636;SDS011;11995;50.842;4.456;2022-12-13T04:25:16;52.58;;;23.45;;
23636;SDS011;11995;50.842;4.456;2022-12-13T04:27:45;44.98;;;22.52;;
23636;SDS011;11995;50.842;4.456;2022-12-13T04:30:12;46.13;;;23.95;;
23636;SDS011;11995;50.842;4.456;2022-12-13T04:32:40;45.08;;;23.10;;
23636;SDS011;11995;50.842;4.456;2022-12-13T04:35:07;51.15;;;24.27;;
23636;SDS011;11995;50.842;4.456;2022-12-13T04:37:35;56.50;;;25.12;;
23636;SDS011;11995;50.842;4.456;2022-12-13T04:40:03;48.48;;;24.25;;
23636;SDS011;11995;50.842;4.456;2022-12-13T04:42:31;48.68;;;22.98;;
23636;SDS011;11995;50.842;4.456;2022-12-13T04:44:58;44.70;;;20.57;;
23636;SDS011;11995;50.842;4.456;2022-12-13T04:47:26;53.15;;;25.88;;
23636;SDS011;11995;50.842;4.456;2022-12-13T04:49:53;55.05;;;24.95;;
23636;SDS011;11995;50.842;4.456;2022-12-13T04:52:21;51.95;;;24.32;;
23636;SDS011;11995;50.842;4.456;2022-12-13T04:54:48;50.92;;;26.02;;
23636;SDS011;11995;50.842;4.456;2022-12-13T04:57:16;58.87;;;27.58;;
23636;SDS011;11995;50.842;4.456;2022-12-13T04:59:43;55.95;;;25.40;;
23636;SDS011;11995;50.842;4.456;2022-12-13T05:02:11;65.75;;;27.15;;
23636;SDS011;11995;50.842;4.456;2022-12-13T05:04:39;48.10;;;21.40;;
23636;SDS011;11995;50.842;4.456;2022-12-13T05:07:06;57.83;;;27.02;;
23636;SDS011;11995;50.842;4.456;2022-12-13T05:09:34;49.08;;;25.40;;
23636;SDS011;11995;50.842;4.456;2022-12-13T05:12:02;34.60;;;18.27;;
23636;SDS011;11995;50.842;4.456;2022-12-13T05:14:30;48.38;;;23.60;;
23636;SDS011;11995;50.842;4.456;2022-12-13T05:17:00;63.17;;;29.37;;
23636;SDS011;11995;50.842;4.456;2022-12-13T05:19:28;51.73;;;25.37;;
23636;SDS011;11995;50.842;4.456;2022-12-13T05:21:56;48.68;;;24.63;;
23636;SDS011;11995;50.842;4.456;2022-12-13T05:24:24;53.40;;;26.07;;
23636;SDS011;11995;50.842;4.456;2022-12-13T05:26:52;50.60;;;24.52;;
23636;SDS011;11995;50.842;4.456;2022-12-13T05:29:19;54.63;;;25.30;;
23636;SDS011;11995;50.842;4.456;2022-12-13T05:34:16;50.75;;;24.27;;
23636;SDS011;11995;50.842;4.456;2022-12-13T05:36:43;59.90;;;25.27;;
23636;SDS011;11995;50.842;4.456;2022-12-13T05:39:11;57.62;;;25.70;;
23636;SDS011;11995;50.842;4.456;2022-12-13T05:41:38;51.05;;;25.35;;
23636;SDS011;11995;50.842;4.456;2022-12-13T05:44:06;53.45;;;25.57;;
23636;SDS011;11995;50.842;4.456;2022-12-13T05:46:35;58.65;;;26.90;;
23636;SDS011;11995;50.842;4.456;2022-12-13T05:49:03;45.90;;;24.85;;
23636;SDS011;11995;50.842;4.456;2022-12-13T05:51:30;55.65;;;25.82;;
23636;SDS011;11995;50.842;4.456;2022-12-13T05:53:58;42.75;;;19.57;;
23636;SDS011;11995;50.842;4.456;2022-12-13T05:56:26;40.25;;;19.67;;
23636;SDS011;11995;50.842;4.456;2022-12-13T05:58:53;51.58;;;24.67;;
23636;SDS011;11995;50.842;4.456;2022-12-13T06:01:21;51.95;;;25.05;;
23636;SDS011;11995;50.842;4.456;2022-12-13T06:03:48;52.78;;;25.90;;
23636;SDS011;11995;50.842;4.456;2022-12-13T06:06:16;59.45;;;25.72;;
23636;SDS011;11995;50.842;4.456;2022-12-13T06:08:43;45.12;;;20.80;;
23636;SDS011;11995;50.842;4.456;2022-12-13T06:11:11;42.90;;;20.63;;
23636;SDS011;11995;50.842;4.456;2022-12-13T06:13:40;54.90;;;24.80;;
23636;SDS011;11995;50.842;4.456;2022-12-13T06:16:09;57.98;;;25.02;;
23636;SDS011;11995;50.842;4.456;2022-12-13T06:18:38;51.83;;;24.92;;
23636;SDS011;11995;50.842;4.456;2022-12-13T06:21:07;57.33;;;24.00;;
23636;SDS011;11995;50.842;4.456;2022-12-13T06:23:34;57.30;;;27.10;;
23636;SDS011;11995;50.842;4.456;2022-12-13T06:26:07;39.90;;;21.17;;
23636;SDS011;11995;50.842;4.456;2022-12-13T06:28:32;58.83;;;24.87;;
23636;SDS011;11995;50.842;4.456;2022-12-13T06:31:00;41.47;;;20.50;;
23636;SDS011;11995;50.842;4.456;2022-12-13T06:33:29;51.80;;;23.10;;
23636;SDS011;11995;50.842;4.456;2022-12-13T06:35:59;46.88;;;24.30;;
23636;SDS011;11995;50.842;4.456;2022-12-13T06:38:27;51.15;;;25.15;;
23636;SDS011;11995;50.842;4.456;2022-12-13T06:41:04;53.80;;;26.65;;
23636;SDS011;11995;50.842;4.456;2022-12-13T06:43:35;47.03;;;23.30;;
23636;SDS011;11995;50.842;4.456;2022-12-13T06:46:03;40.12;;;18.92;;
23636;SDS011;11995;50.842;4.456;2022-12-13T06:48:31;52.23;;;24.90;;
23636;SDS011;11995;50.842;4.456;2022-12-13T06:51:00;51.55;;;25.68;;
23636;SDS011;11995;50.842;4.456;2022-12-13T06:53:28;53.23;;;24.63;;
23636;SDS011;11995;50.842;4.456;2022-12-13T06:56:01;47.70;;;22.90;;
23636;SDS011;11995;50.842;4.456;2022-12-13T06:58:30;62.53;;;25.68;;
23636;SDS011;11995;50.842;4.456;2022-12-13T07:03:35;53.85;;;24.72;;
23636;SDS011;11995;50.842;4.456;2022-12-13T07:06:05;52.43;;;25.62;;
23636;SDS011;11995;50.842;4.456;2022-12-13T07:08:34;53.50;;;26.80;;
23636;SDS011;11995;50.842;4.456;2022-12-13T07:11:02;52.60;;;24.77;;
23636;SDS011;11995;50.842;4.456;2022-12-13T07:13:29;49.13;;;24.97;;
23636;SDS011;11995;50.842;4.456;2022-12-13T07:16:00;51.55;;;25.40;;
23636;SDS011;11995;50.842;4.456;2022-12-13T07:18:27;49.00;;;23.07;;
23636;SDS011;11995;50.842;4.456;2022-12-13T07:20:55;47.27;;;23.65;;
23636;SDS011;11995;50.842;4.456;2022-12-13T07:23:22;50.60;;;23.62;;
23636;SDS011;11995;50.842;4.456;2022-12-13T07:25:53;54.77;;;24.92;;
23636;SDS011;11995;50.842;4.456;2022-12-13T07:28:22;55.83;;;28.05;;
23636;SDS011;11995;50.842;4.456;2022-12-13T07:36:29;58.08;;;24.52;;
23636;SDS011;11995;50.842;4.456;2022-12-13T07:38:57;52.27;;;25.17;;
23636;SDS011;11995;50.842;4.456;2022-12-13T07:41:25;36.93;;;19.37;;
23636;SDS011;11995;50.842;4.456;2022-12-13T07:43:53;58.08;;;26.68;;
23636;SDS011;11995;50.842;4.456;2022-12-13T07:46:23;52.65;;;26.00;;
23636;SDS011;11995;50.842;4.456;2022-12-13T07:48:51;55.55;;;26.65;;
23636;SDS011;11995;50.842;4.456;2022-12-13T07:51:20;53.68;;;26.15;;
23636;SDS011;11995;50.842;4.456;2022-12-13T07:53:49;61.42;;;28.17;;
23636;SDS011;11995;50.842;4.456;2022-12-13T07:58:43;49.15;;;25.10;;
23636;SDS011;11995;50.842;4.456;2022-12-13T08:03:38;50.70;;;24.90;;
23636;SDS011;11995;50.842;4.456;2022-12-13T08:06:09;56.60;;;27.25;;
23636;SDS011;11995;50.842;4.456;2022-12-13T08:08:37;56.58;;;25.97;;
23636;SDS011;11995;50.842;4.456;2022-12-13T08:11:06;65.67;;;27.57;;
23636;SDS011;11995;50.842;4.456;2022-12-13T08:13:34;53.92;;;27.00;;
23636;SDS011;11995;50.842;4.456;2022-12-13T08:18:31;54.03;;;25.92;;
23636;SDS011;11995;50.842;4.456;2022-12-13T08:21:05;49.20;;;26.05;;
23636;SDS011;11995;50.842;4.456;2022-12-13T08:23:30;53.30;;;26.62;;
23636;SDS011;11995;50.842;4.456;2022-12-13T08:25:59;60.50;;;26.62;;
23636;SDS011;11995;50.842;4.456;2022-12-13T08:28:28;53.65;;;26.52;;
23636;SDS011;11995;50.842;4.456;2022-12-13T08:31:04;52.50;;;26.68;;
23636;SDS011;11995;50.842;4.456;2022-12-13T08:33:33;57.62;;;27.90;;
23636;SDS011;11995;50.842;4.456;2022-12-13T08:36:13;47.43;;;21.20;;
23636;SDS011;11995;50.842;4.456;2022-12-13T08:38:37;51.48;;;25.85;;
23636;SDS011;11995;50.842;4.456;2022-12-13T08:41:04;68.42;;;36.05;;
23636;SDS011;11995;50.842;4.456;2022-12-13T08:43:38;53.23;;;26.20;;
23636;SDS011;11995;50.842;4.456;2022-12-13T08:46:03;52.93;;;25.65;;
23636;SDS011;11995;50.842;4.456;2022-12-13T08:48:31;42.45;;;22.52;;
23636;SDS011;11995;50.842;4.456;2022-12-13T08:51:01;49.80;;;25.95;;
23636;SDS011;11995;50.842;4.456;2022-12-13T08:53:31;57.00;;;26.23;;
23636;SDS011;11995;50.842;4.456;2022-12-13T08:55:59;48.70;;;24.07;;
23636;SDS011;11995;50.842;4.456;2022-12-13T08:58:28;46.58;;;22.98;;
23636;SDS011;11995;50.842;4.456;2022-12-13T09:00:57;44.73;;;24.43;;
23636;SDS011;11995;50.842;4.456;2022-12-13T09:03:25;42.93;;;21.48;;
23636;SDS011;11995;50.842;4.456;2022-12-13T09:05:52;48.13;;;23.52;;
23636;SDS011;11995;50.842;4.456;2022-12-13T09:08:20;47.93;;;25.00;;
23636;SDS011;11995;50.842;4.456;2022-12-13T09:10:57;51.88;;;23.73;;
23636;SDS011;11995;50.842;4.456;2022-12-13T09:13:22;46.92;;;32.30;;
23636;SDS011;11995;50.842;4.456;2022-12-13T09:15:50;48.50;;;24.40;;
23636;SDS011;11995;50.842;4.456;2022-12-13T09:18:19;49.83;;;23.67;;
23636;SDS011;11995;50.842;4.456;2022-12-13T09:20:46;40.48;;;22.30;;
23636;SDS011;11995;50.842;4.456;2022-12-13T09:23:14;46.33;;;23.18;;
23636;SDS011;11995;50.842;4.456;2022-12-13T09:25:41;45.78;;;22.82;;
23636;SDS011;11995;50.842;4.456;2022-12-13T09:28:09;41.77;;;22.77;;
23636;SDS011;11995;50.842;4.456;2022-12-13T09:30:37;48.10;;;22.60;;
23636;SDS011;11995;50.842;4.456;2022-12-13T09:33:05;40.38;;;20.97;;
23636;SDS011;11995;50.842;4.456;2022-12-13T09:35:33;52.60;;;24.35;;
23636;SDS011;11995;50.842;4.456;2022-12-13T09:38:02;47.95;;;22.40;;
23636;SDS011;11995;50.842;4.456;2022-12-13T09:40:29;47.70;;;22.50;;
23636;SDS011;11995;50.842;4.456;2022-12-13T09:45:27;39.23;;;20.90;;
23636;SDS011;11995;50.842;4.456;2022-12-13T09:47:55;40.80;;;21.35;;
23636;SDS011;11995;50.842;4.456;2022-12-13T09:50:30;40.23;;;21.68;;
23636;SDS011;11995;50.842;4.456;2022-12-13T09:53:00;43.13;;;21.15;;
23636;SDS011;11995;50.842;4.456;2022-12-13T09:55:31;42.85;;;24.15;;
23636;SDS011;11995;50.842;4.456;2022-12-13T09:58:10;41.08;;;20.23;;
23636;SDS011;11995;50.842;4.456;2022-12-13T10:00:36;44.03;;;19.37;;
23636;SDS011;11995;50.842;4.456;2022-12-13T10:03:04;42.00;;;22.42;;
23636;SDS011;11995;50.842;4.456;2022-12-13T10:05:37;36.90;;;18.50;;
23636;SDS011;11995;50.842;4.456;2022-12-13T10:10:39;37.93;;;19.15;;
23636;SDS011;11995;50.842;4.456;2022-12-13T10:15:50;40.17;;;19.12;;
23636;SDS011;11995;50.842;4.456;2022-12-13T10:18:25;34.40;;;17.05;;
23636;SDS011;11995;50.842;4.456;2022-12-13T10:20:54;35.17;;;18.32;;
23636;SDS011;11995;50.842;4.456;2022-12-13T10:23:22;45.85;;;20.37;;
23636;SDS011;11995;50.842;4.456;2022-12-13T10:25:51;41.88;;;19.67;;
23636;SDS011;11995;50.842;4.456;2022-12-13T10:28:24;38.42;;;20.10;;
23636;SDS011;11995;50.842;4.456;2022-12-13T10:30:54;38.53;;;18.92;;
23636;SDS011;11995;50.842;4.456;2022-12-13T10:36:00;32.93;;;18.42;;
23636;SDS011;11995;50.842;4.456;2022-12-13T10:38:37;33.55;;;17.87;;
23636;SDS011;11995;50.842;4.456;2022-12-13T10:41:26;32.53;;;17.32;;
23636;SDS011;11995;50.842;4.456;2022-12-13T10:44:21;37.78;;;17.85;;
23636;SDS011;11995;50.842;4.456;2022-12-13T10:46:32;38.83;;;19.60;;
23636;SDS011;11995;50.842;4.456;2022-12-13T10:48:59;35.60;;;18.27;;
23636;SDS011;11995;50.842;4.456;2022-12-13T10:51:27;38.33;;;17.73;;
23636;SDS011;11995;50.842;4.456;2022-12-13T10:53:58;31.77;;;17.65;;
23636;SDS011;11995;50.842;4.456;2022-12-13T10:56:39;33.90;;;17.12;;
23636;SDS011;11995;50.842;4.456;2022-12-13T10:59:10;28.62;;;15.68;;
23636;SDS011;11995;50.842;4.456;2022-12-13T11:01:39;36.38;;;16.57;;
23636;SDS011;11995;50.842;4.456;2022-12-13T11:04:27;29.82;;;12.78;;
23636;SDS011;11995;50.842;4.456;2022-12-13T11:07:00;30.17;;;15.80;;
23636;SDS011;11995;50.842;4.456;2022-12-13T11:09:32;31.23;;;15.85;;
23636;SDS011;11995;50.842;4.456;2022-12-13T11:12:01;24.90;;;14.10;;
23636;SDS011;11995;50.842;4.456;2022-12-13T11:14:32;28.07;;;15.38;;
23636;SDS011;11995;50.842;4.456;2022-12-13T11:17:11;30.43;;;14.20;;
23636;SDS011;11995;50.842;4.456;2022-12-13T11:19:43;27.77;;;15.48;;
23636;SDS011;11995;50.842;4.456;2022-12-13T11:25:02;31.00;;;16.48;;
23636;SDS011;11995;50.842;4.456;2022-12-13T11:35:50;33.95;;;18.10;;
23636;SDS011;11995;50.842;4.456;2022-12-13T11:40:57;30.40;;;16.50;;
23636;SDS011;11995;50.842;4.456;2022-12-13T11:43:31;29.35;;;16.37;;
23636;SDS011;11995;50.842;4.456;2022-12-13T11:45:59;33.18;;;15.98;;
23636;SDS011;11995;50.842;4.456;2022-12-13T11:48:41;30.27;;;15.45;;
23636;SDS011;11995;50.842;4.456;2022-12-13T11:51:12;28.38;;;15.58;;
23636;SDS011;11995;50.842;4.456;2022-12-13T11:53:51;29.65;;;14.38;;
23636;SDS011;11995;50.842;4.456;2022-12-13T11:56:23;28.02;;;16.35;;
23636;SDS011;11995;50.842;4.456;2022-12-13T12:04:54;32.55;;;15.85;;
23636;SDS011;11995;50.842;4.456;2022-12-13T12:10:16;31.55;;;14.30;;
23636;SDS011;11995;50.842;4.456;2022-12-13T12:13:02;26.07;;;13.13;;
23636;SDS011;11995;50.842;4.456;2022-12-13T12:15:45;24.77;;;13.75;;
23636;SDS011;11995;50.842;4.456;2022-12-13T12:18:14;30.85;;;16.23;;
23636;SDS011;11995;50.842;4.456;2022-12-13T12:20:44;24.75;;;13.90;;
23636;SDS011;11995;50.842;4.456;2022-12-13T12:26:28;17.75;;;9.90;;
23636;SDS011;11995;50.842;4.456;2022-12-13T12:29:09;29.23;;;15.23;;
23636;SDS011;11995;50.842;4.456;2022-12-13T12:31:39;29.80;;;15.68;;
23636;SDS011;11995;50.842;4.456;2022-12-13T12:34:28;27.35;;;15.32;;
23636;SDS011;11995;50.842;4.456;2022-12-13T12:37:13;25.43;;;14.87;;
23636;SDS011;11995;50.842;4.456;2022-12-13T12:45:00;33.08;;;17.12;;
23636;SDS011;11995;50.842;4.456;2022-12-13T12:47:41;34.80;;;17.00;;
23636;SDS011;11995;50.842;4.456;2022-12-13T12:50:38;45.92;;;22.52;;
23636;SDS011;11995;50.842;4.456;2022-12-13T12:58:37;31.77;;;16.00;;
23636;SDS011;11995;50.842;4.456;2022-12-13T13:04:20;28.95;;;15.70;;
23636;SDS011;11995;50.842;4.456;2022-12-13T13:06:59;30.05;;;14.85;;
23636;SDS011;11995;50.842;4.456;2022-12-13T13:09:33;24.95;;;13.45;;
23636;SDS011;11995;50.842;4.456;2022-12-13T13:14:32;30.08;;;13.80;;
23636;SDS011;11995;50.842;4.456;2022-12-13T13:19:54;33.38;;;16.37;;
23636;SDS011;11995;50.842;4.456;2022-12-13T13:22:40;28.15;;;14.53;;
23636;SDS011;11995;50.842;4.456;2022-12-13T13:27:43;27.82;;;12.93;;
23636;SDS011;11995;50.842;4.456;2022-12-13T13:30:19;30.02;;;15.35;;
23636;SDS011;11995;50.842;4.456;2022-12-13T13:32:48;29.65;;;15.55;;
23636;SDS011;11995;50.842;4.456;2022-12-13T13:38:03;33.38;;;15.83;;
23636;SDS011;11995;50.842;4.456;2022-12-13T13:40:44;34.35;;;17.27;;
23636;SDS011;11995;50.842;4.456;2022-12-13T13:43:13;24.32;;;11.08;;
23636;SDS011;11995;50.842;4.456;2022-12-13T13:45:57;35.30;;;17.30;;
23636;SDS011;11995;50.842;4.456;2022-12-13T14:00:07;38.80;;;17.00;;
23636;SDS011;11995;50.842;4.456;2022-12-13T14:02:48;32.50;;;15.68;;
23636;SDS011;11995;50.842;4.456;2022-12-13T14:11:02;32.45;;;16.05;;
23636;SDS011;11995;50.842;4.456;2022-12-13T14:22:11;38.38;;;17.27;;
23636;SDS011;11995;50.842;4.456;2022-12-13T14:30:45;35.52;;;16.30;;
23636;SDS011;11995;50.842;4.456;2022-12-13T14:33:20;43.63;;;19.55;;
23636;SDS011;11995;50.842;4.456;2022-12-13T14:35:51;34.92;;;17.15;;
23636;SDS011;11995;50.842;4.456;2022-12-13T14:38:25;38.65;;;18.48;;
23636;SDS011;11995;50.842;4.456;2022-12-13T14:40:55;33.30;;;17.70;;
23636;SDS011;11995;50.842;4.456;2022-12-13T14:43:30;42.48;;;20.25;;
23636;SDS011;11995;50.842;4.456;2022-12-13T14:45:59;40.10;;;18.40;;
23636;SDS011;11995;50.842;4.456;2022-12-13T14:49:04;38.02;;;19.30;;
23636;SDS011;11995;50.842;4.456;2022-12-13T14:51:44;34.23;;;15.88;;
23636;SDS011;11995;50.842;4.456;2022-12-13T14:54:03;40.17;;;18.55;;
23636;SDS011;11995;50.842;4.456;2022-12-13T14:56:32;36.25;;;19.25;;
23636;SDS011;11995;50.842;4.456;2022-12-13T14:59:02;40.40;;;19.80;;
23636;SDS011;11995;50.842;4.456;2022-12-13T15:01:32;38.20;;;18.35;;
23636;SDS011;11995;50.842;4.456;2022-12-13T15:09:34;42.23;;;20.60;;
23636;SDS011;11995;50.842;4.456;2022-12-13T15:12:01;47.90;;;21.60;;
23636;SDS011;11995;50.842;4.456;2022-12-13T15:14:32;44.80;;;19.75;;
23636;SDS011;11995;50.842;4.456;2022-12-13T15:17:02;45.83;;;20.85;;
23636;SDS011;11995;50.842;4.456;2022-12-13T15:19:30;46.75;;;21.55;;
23636;SDS011;11995;50.842;4.456;2022-12-13T15:21:58;45.85;;;20.02;;
23636;SDS011;11995;50.842;4.456;2022-12-13T15:24:35;43.63;;;21.62;;
23636;SDS011;11995;50.842;4.456;2022-12-13T15:27:05;46.90;;;20.43;;
23636;SDS011;11995;50.842;4.456;2022-12-13T15:29:34;47.20;;;22.17;;
23636;SDS011;11995;50.842;4.456;2022-12-13T15:32:02;37.00;;;18.85;;
23636;SDS011;11995;50.842;4.456;2022-12-13T15:34:34;43.25;;;21.12;;
23636;SDS011;11995;50.842;4.456;2022-12-13T15:37:13;48.75;;;21.60;;
23636;SDS011;11995;50.842;4.456;2022-12-13T15:39:37;48.20;;;22.27;;
23636;SDS011;11995;50.842;4.456;2022-12-13T15:42:28;49.18;;;21.45;;
23636;SDS011;11995;50.842;4.456;2022-12-13T15:44:47;49.23;;;23.70;;
23636;SDS011;11995;50.842;4.456;2022-12-13T15:47:20;47.43;;;22.95;;
23636;SDS011;11995;50.842;4.456;2022-12-13T15:49:53;43.65;;;20.65;;
23636;SDS011;11995;50.842;4.456;2022-12-13T15:52:24;53.40;;;24.20;;
23636;SDS011;11995;50.842;4.456;2022-12-13T15:55:41;46.23;;;23.38;;
23636;SDS011;11995;50.842;4.456;2022-12-13T15:57:46;55.20;;;24.00;;
23636;SDS011;11995;50.842;4.456;2022-12-13T16:02:55;58.17;;;25.15;;
23636;SDS011;11995;50.842;4.456;2022-12-13T16:05:31;50.73;;;23.10;;
23636;SDS011;11995;50.842;4.456;2022-12-13T16:08:01;51.35;;;24.15;;
23636;SDS011;11995;50.842;4.456;2022-12-13T16:10:31;53.65;;;22.60;;
23636;SDS011;11995;50.842;4.456;2022-12-13T16:13:04;54.25;;;25.77;;
23636;SDS011;11995;50.842;4.456;2022-12-13T16:15:49;52.30;;;24.63;;
23636;SDS011;11995;50.842;4.456;2022-12-13T16:18:22;57.27;;;26.60;;
23636;SDS011;11995;50.842;4.456;2022-12-13T16:20:54;55.98;;;25.32;;
23636;SDS011;11995;50.842;4.456;2022-12-13T16:23:22;53.85;;;25.08;;
23636;SDS011;11995;50.842;4.456;2022-12-13T16:25:51;59.85;;;26.27;;
23636;SDS011;11995;50.842;4.456;2022-12-13T16:28:19;62.85;;;26.80;;
23636;SDS011;11995;50.842;4.456;2022-12-13T16:30:55;64.17;;;29.70;;
23636;SDS011;11995;50.842;4.456;2022-12-13T16:33:39;51.45;;;22.13;;
23636;SDS011;11995;50.842;4.456;2022-12-13T16:36:08;49.27;;;20.43;;
23636;SDS011;11995;50.842;4.456;2022-12-13T16:38:36;56.10;;;24.87;;
23636;SDS011;11995;50.842;4.456;2022-12-13T16:41:04;53.38;;;23.87;;
23636;SDS011;11995;50.842;4.456;2022-12-13T16:43:33;56.85;;;26.77;;
23636;SDS011;11995;50.842;4.456;2022-12-13T16:46:06;61.25;;;27.48;;
23636;SDS011;11995;50.842;4.456;2022-12-13T16:48:36;61.08;;;27.58;;
23636;SDS011;11995;50.842;4.456;2022-12-13T16:51:04;55.00;;;26.20;;
23636;SDS011;11995;50.842;4.456;2022-12-13T16:56:01;56.08;;;25.48;;
23636;SDS011;11995;50.842;4.456;2022-12-13T16:58:29;53.83;;;26.48;;
23636;SDS011;11995;50.842;4.456;2022-12-13T17:00:58;52.40;;;23.65;;
23636;SDS011;11995;50.842;4.456;2022-12-13T17:03:27;58.92;;;29.60;;
23636;SDS011;11995;50.842;4.456;2022-12-13T17:05:54;57.75;;;26.75;;
23636;SDS011;11995;50.842;4.456;2022-12-13T17:08:22;54.60;;;26.77;;
23636;SDS011;11995;50.842;4.456;2022-12-13T17:10:50;59.65;;;27.37;;
23636;SDS011;11995;50.842;4.456;2022-12-13T17:13:17;57.43;;;23.38;;